sensor_id;sensor_type;location;lat;lon;timestamp;P1;durP1;ratioP1;P2;durP2;ratioP2
21254;SDS011;10785;50.674;17.954;2022-08-05T00:01:51;9.80;;;7.43;;
21254;SDS011;10785;50.674;17.954;2022-08-05T00:04:33;12.82;;;8.68;;
21254;SDS011;10785;50.674;17.954;2022-08-05T00:07:02;13.55;;;8.10;;
21254;SDS011;10785;50.674;17.954;2022-08-05T00:09:51;11.52;;;8.02;;
21254;SDS011;10785;50.674;17.954;2022-08-05T00:12:21;9.60;;;8.60;;
21254;SDS011;10785;50.674;17.954;2022-08-05T00:14:50;10.73;;;7.95;;
21254;SDS011;10785;50.674;17.954;2022-08-05T00:17:19;11.15;;;8.70;;
21254;SDS011;10785;50.674;17.954;2022-08-05T00:19:47;9.80;;;8.80;;
21254;SDS011;10785;50.674;17.954;2022-08-05T00:22:29;15.18;;;8.85;;
21254;SDS011;10785;50.674;17.954;2022-08-05T00:24:58;10.18;;;7.88;;
21254;SDS011;10785;50.674;17.954;2022-08-05T00:27:30;11.00;;;8.82;;
21254;SDS011;10785;50.674;17.954;2022-08-05T00:30:02;11.15;;;8.80;;
21254;SDS011;10785;50.674;17.954;2022-08-05T00:32:37;10.38;;;8.98;;
21254;SDS011;10785;50.674;17.954;2022-08-05T00:35:06;13.75;;;8.98;;
21254;SDS011;10785;50.674;17.954;2022-08-05T00:37:36;12.27;;;8.80;;
21254;SDS011;10785;50.674;17.954;2022-08-05T00:40:19;14.40;;;9.48;;
21254;SDS011;10785;50.674;17.954;2022-08-05T00:42:57;9.02;;;8.13;;
21254;SDS011;10785;50.674;17.954;2022-08-05T00:45:28;15.52;;;8.93;;
21254;SDS011;10785;50.674;17.954;2022-08-05T00:48:10;9.65;;;8.55;;
21254;SDS011;10785;50.674;17.954;2022-08-05T00:50:40;15.07;;;8.10;;
21254;SDS011;10785;50.674;17.954;2022-08-05T00:53:12;13.80;;;8.75;;
21254;SDS011;10785;50.674;17.954;2022-08-05T00:56:02;9.60;;;8.60;;
21254;SDS011;10785;50.674;17.954;2022-08-05T00:58:35;15.60;;;9.43;;
21254;SDS011;10785;50.674;17.954;2022-08-05T01:01:08;16.05;;;9.35;;
21254;SDS011;10785;50.674;17.954;2022-08-05T01:03:39;12.48;;;9.30;;
21254;SDS011;10785;50.674;17.954;2022-08-05T01:06:08;14.00;;;8.38;;
21254;SDS011;10785;50.674;17.954;2022-08-05T01:08:41;10.45;;;8.73;;
21254;SDS011;10785;50.674;17.954;2022-08-05T01:11:15;15.65;;;8.70;;
21254;SDS011;10785;50.674;17.954;2022-08-05T01:13:54;14.48;;;9.15;;
21254;SDS011;10785;50.674;17.954;2022-08-05T01:16:29;12.32;;;8.70;;
21254;SDS011;10785;50.674;17.954;2022-08-05T01:19:07;13.43;;;9.05;;
21254;SDS011;10785;50.674;17.954;2022-08-05T01:21:49;13.13;;;8.90;;
21254;SDS011;10785;50.674;17.954;2022-08-05T01:24:40;12.52;;;9.40;;
21254;SDS011;10785;50.674;17.954;2022-08-05T01:27:24;13.10;;;9.02;;
21254;SDS011;10785;50.674;17.954;2022-08-05T01:30:21;14.52;;;9.57;;
21254;SDS011;10785;50.674;17.954;2022-08-05T01:33:01;15.65;;;9.73;;
21254;SDS011;10785;50.674;17.954;2022-08-05T01:35:34;10.65;;;8.88;;
21254;SDS011;10785;50.674;17.954;2022-08-05T01:38:19;13.25;;;9.27;;
21254;SDS011;10785;50.674;17.954;2022-08-05T01:40:53;13.15;;;9.27;;
21254;SDS011;10785;50.674;17.954;2022-08-05T01:43:26;11.70;;;9.27;;
21254;SDS011;10785;50.674;17.954;2022-08-05T01:45:55;10.95;;;9.65;;
21254;SDS011;10785;50.674;17.954;2022-08-05T01:48:42;11.57;;;10.25;;
21254;SDS011;10785;50.674;17.954;2022-08-05T01:51:16;12.02;;;9.90;;
21254;SDS011;10785;50.674;17.954;2022-08-05T01:53:46;13.45;;;10.15;;
21254;SDS011;10785;50.674;17.954;2022-08-05T01:56:25;12.10;;;9.20;;
21254;SDS011;10785;50.674;17.954;2022-08-05T01:59:19;11.40;;;9.40;;
21254;SDS011;10785;50.674;17.954;2022-08-05T02:01:50;19.92;;;10.15;;
21254;SDS011;10785;50.674;17.954;2022-08-05T02:04:23;14.50;;;10.20;;
21254;SDS011;10785;50.674;17.954;2022-08-05T02:06:55;13.48;;;10.35;;
21254;SDS011;10785;50.674;17.954;2022-08-05T02:09:29;14.88;;;11.02;;
21254;SDS011;10785;50.674;17.954;2022-08-05T02:11:59;13.70;;;9.73;;
21254;SDS011;10785;50.674;17.954;2022-08-05T02:14:39;16.10;;;10.43;;
21254;SDS011;10785;50.674;17.954;2022-08-05T02:17:15;19.88;;;11.25;;
21254;SDS011;10785;50.674;17.954;2022-08-05T02:20:15;12.73;;;10.40;;
21254;SDS011;10785;50.674;17.954;2022-08-05T02:22:49;12.70;;;10.48;;
21254;SDS011;10785;50.674;17.954;2022-08-05T02:25:27;16.95;;;10.70;;
21254;SDS011;10785;50.674;17.954;2022-08-05T02:28:15;11.82;;;10.63;;
21254;SDS011;10785;50.674;17.954;2022-08-05T02:30:59;15.57;;;10.85;;
21254;SDS011;10785;50.674;17.954;2022-08-05T02:33:34;13.35;;;10.77;;
21254;SDS011;10785;50.674;17.954;2022-08-05T02:36:07;13.63;;;10.80;;
21254;SDS011;10785;50.674;17.954;2022-08-05T02:38:41;13.10;;;9.82;;
21254;SDS011;10785;50.674;17.954;2022-08-05T02:41:19;12.75;;;10.10;;
21254;SDS011;10785;50.674;17.954;2022-08-05T02:44:02;14.77;;;10.65;;
21254;SDS011;10785;50.674;17.954;2022-08-05T02:46:40;17.25;;;10.77;;
21254;SDS011;10785;50.674;17.954;2022-08-05T02:49:26;13.73;;;10.60;;
21254;SDS011;10785;50.674;17.954;2022-08-05T02:52:09;16.95;;;10.70;;
21254;SDS011;10785;50.674;17.954;2022-08-05T02:54:56;12.63;;;10.48;;
21254;SDS011;10785;50.674;17.954;2022-08-05T02:57:30;16.70;;;10.45;;
21254;SDS011;10785;50.674;17.954;2022-08-05T03:00:21;12.38;;;10.20;;
21254;SDS011;10785;50.674;17.954;2022-08-05T03:02:52;15.02;;;10.80;;
21254;SDS011;10785;50.674;17.954;2022-08-05T03:05:24;14.80;;;10.57;;
21254;SDS011;10785;50.674;17.954;2022-08-05T03:08:13;13.93;;;10.60;;
21254;SDS011;10785;50.674;17.954;2022-08-05T03:10:52;13.02;;;10.23;;
21254;SDS011;10785;50.674;17.954;2022-08-05T03:13:41;17.65;;;11.52;;
21254;SDS011;10785;50.674;17.954;2022-08-05T03:16:28;13.02;;;9.85;;
21254;SDS011;10785;50.674;17.954;2022-08-05T03:18:59;16.17;;;10.88;;
21254;SDS011;10785;50.674;17.954;2022-08-05T03:21:38;16.27;;;10.95;;
21254;SDS011;10785;50.674;17.954;2022-08-05T03:24:14;16.40;;;11.70;;
21254;SDS011;10785;50.674;17.954;2022-08-05T03:26:55;13.45;;;11.05;;
21254;SDS011;10785;50.674;17.954;2022-08-05T03:29:24;16.95;;;13.30;;
21254;SDS011;10785;50.674;17.954;2022-08-05T03:32:13;16.80;;;11.20;;
21254;SDS011;10785;50.674;17.954;2022-08-05T03:34:47;15.40;;;12.05;;
21254;SDS011;10785;50.674;17.954;2022-08-05T03:37:17;16.10;;;11.45;;
21254;SDS011;10785;50.674;17.954;2022-08-05T03:39:53;18.02;;;11.10;;
21254;SDS011;10785;50.674;17.954;2022-08-05T03:42:25;16.52;;;10.95;;
21254;SDS011;10785;50.674;17.954;2022-08-05T03:44:54;15.90;;;11.23;;
21254;SDS011;10785;50.674;17.954;2022-08-05T03:47:23;14.50;;;10.57;;
21254;SDS011;10785;50.674;17.954;2022-08-05T03:50:02;34.53;;;10.93;;
21254;SDS011;10785;50.674;17.954;2022-08-05T03:52:37;12.88;;;10.07;;
21254;SDS011;10785;50.674;17.954;2022-08-05T03:55:36;11.65;;;9.60;;
21254;SDS011;10785;50.674;17.954;2022-08-05T03:58:30;10.27;;;8.77;;
21254;SDS011;10785;50.674;17.954;2022-08-05T04:01:01;16.50;;;9.88;;
21254;SDS011;10785;50.674;17.954;2022-08-05T04:03:33;10.52;;;8.88;;
21254;SDS011;10785;50.674;17.954;2022-08-05T04:06:05;14.10;;;9.40;;
21254;SDS011;10785;50.674;17.954;2022-08-05T04:08:34;12.88;;;9.43;;
21254;SDS011;10785;50.674;17.954;2022-08-05T04:11:05;12.15;;;9.18;;
21254;SDS011;10785;50.674;17.954;2022-08-05T04:13:37;14.68;;;9.32;;
21254;SDS011;10785;50.674;17.954;2022-08-05T04:16:17;12.73;;;8.63;;
21254;SDS011;10785;50.674;17.954;2022-08-05T04:18:50;12.70;;;9.07;;
21254;SDS011;10785;50.674;17.954;2022-08-05T04:21:24;10.38;;;8.85;;
21254;SDS011;10785;50.674;17.954;2022-08-05T04:24:13;9.07;;;8.15;;
21254;SDS011;10785;50.674;17.954;2022-08-05T04:26:48;12.98;;;9.15;;
21254;SDS011;10785;50.674;17.954;2022-08-05T04:29:17;12.38;;;8.57;;
21254;SDS011;10785;50.674;17.954;2022-08-05T04:31:46;12.35;;;8.98;;
21254;SDS011;10785;50.674;17.954;2022-08-05T04:34:15;10.82;;;8.88;;
21254;SDS011;10785;50.674;17.954;2022-08-05T04:37:01;12.68;;;8.50;;
21254;SDS011;10785;50.674;17.954;2022-08-05T04:39:30;12.90;;;8.40;;
21254;SDS011;10785;50.674;17.954;2022-08-05T04:42:01;10.75;;;8.95;;
21254;SDS011;10785;50.674;17.954;2022-08-05T04:44:30;14.07;;;8.32;;
21254;SDS011;10785;50.674;17.954;2022-08-05T04:46:58;12.80;;;8.95;;
21254;SDS011;10785;50.674;17.954;2022-08-05T04:49:36;18.70;;;8.20;;
21254;SDS011;10785;50.674;17.954;2022-08-05T04:52:26;13.80;;;8.15;;
21254;SDS011;10785;50.674;17.954;2022-08-05T04:55:00;14.90;;;7.57;;
21254;SDS011;10785;50.674;17.954;2022-08-05T04:57:42;13.60;;;8.27;;
21254;SDS011;10785;50.674;17.954;2022-08-05T05:00:17;10.02;;;7.70;;
21254;SDS011;10785;50.674;17.954;2022-08-05T05:02:49;11.65;;;8.75;;
21254;SDS011;10785;50.674;17.954;2022-08-05T05:05:18;11.52;;;8.00;;
21254;SDS011;10785;50.674;17.954;2022-08-05T05:07:58;16.80;;;8.52;;
21254;SDS011;10785;50.674;17.954;2022-08-05T05:10:29;13.82;;;7.50;;
21254;SDS011;10785;50.674;17.954;2022-08-05T05:12:59;16.02;;;7.60;;
21254;SDS011;10785;50.674;17.954;2022-08-05T05:15:30;15.20;;;8.35;;
21254;SDS011;10785;50.674;17.954;2022-08-05T05:18:19;20.67;;;7.78;;
21254;SDS011;10785;50.674;17.954;2022-08-05T05:20:57;20.85;;;8.43;;
21254;SDS011;10785;50.674;17.954;2022-08-05T05:23:27;19.98;;;10.00;;
21254;SDS011;10785;50.674;17.954;2022-08-05T05:26:16;23.88;;;8.40;;
21254;SDS011;10785;50.674;17.954;2022-08-05T05:28:44;14.75;;;8.63;;
21254;SDS011;10785;50.674;17.954;2022-08-05T05:31:13;14.20;;;7.70;;
21254;SDS011;10785;50.674;17.954;2022-08-05T05:33:44;16.00;;;7.80;;
21254;SDS011;10785;50.674;17.954;2022-08-05T05:36:27;14.23;;;7.55;;
21254;SDS011;10785;50.674;17.954;2022-08-05T05:38:58;13.55;;;8.00;;
21254;SDS011;10785;50.674;17.954;2022-08-05T05:41:30;14.32;;;7.80;;
21254;SDS011;10785;50.674;17.954;2022-08-05T05:44:06;12.98;;;7.72;;
21254;SDS011;10785;50.674;17.954;2022-08-05T05:46:55;13.95;;;7.35;;
21254;SDS011;10785;50.674;17.954;2022-08-05T05:49:30;12.55;;;7.60;;
21254;SDS011;10785;50.674;17.954;2022-08-05T05:51:59;14.07;;;7.97;;
21254;SDS011;10785;50.674;17.954;2022-08-05T05:54:35;14.07;;;6.82;;
21254;SDS011;10785;50.674;17.954;2022-08-05T05:57:16;12.73;;;7.78;;
21254;SDS011;10785;50.674;17.954;2022-08-05T05:59:46;14.80;;;6.85;;
21254;SDS011;10785;50.674;17.954;2022-08-05T06:02:18;15.05;;;7.53;;
21254;SDS011;10785;50.674;17.954;2022-08-05T06:05:03;18.27;;;8.23;;
21254;SDS011;10785;50.674;17.954;2022-08-05T06:07:42;14.77;;;7.22;;
21254;SDS011;10785;50.674;17.954;2022-08-05T06:10:29;14.63;;;7.47;;
21254;SDS011;10785;50.674;17.954;2022-08-05T06:13:02;17.70;;;7.05;;
21254;SDS011;10785;50.674;17.954;2022-08-05T06:15:32;15.00;;;7.10;;
21254;SDS011;10785;50.674;17.954;2022-08-05T06:18:21;11.68;;;7.68;;
21254;SDS011;10785;50.674;17.954;2022-08-05T06:20:57;17.27;;;7.60;;
21254;SDS011;10785;50.674;17.954;2022-08-05T06:23:27;12.32;;;8.00;;
21254;SDS011;10785;50.674;17.954;2022-08-05T06:25:59;10.40;;;7.15;;
21254;SDS011;10785;50.674;17.954;2022-08-05T06:28:47;10.15;;;7.07;;
21254;SDS011;10785;50.674;17.954;2022-08-05T06:31:15;16.63;;;7.88;;
21254;SDS011;10785;50.674;17.954;2022-08-05T06:33:48;10.43;;;7.40;;
21254;SDS011;10785;50.674;17.954;2022-08-05T06:36:33;11.15;;;7.55;;
21254;SDS011;10785;50.674;17.954;2022-08-05T06:39:19;11.98;;;7.35;;
21254;SDS011;10785;50.674;17.954;2022-08-05T06:41:54;14.88;;;7.28;;
21254;SDS011;10785;50.674;17.954;2022-08-05T06:44:24;12.20;;;8.13;;
21254;SDS011;10785;50.674;17.954;2022-08-05T06:46:54;12.73;;;7.15;;
21254;SDS011;10785;50.674;17.954;2022-08-05T06:49:27;9.73;;;7.18;;
21254;SDS011;10785;50.674;17.954;2022-08-05T06:52:16;14.65;;;8.05;;
21254;SDS011;10785;50.674;17.954;2022-08-05T06:55:04;13.98;;;7.82;;
21254;SDS011;10785;50.674;17.954;2022-08-05T06:57:35;16.42;;;7.80;;
21254;SDS011;10785;50.674;17.954;2022-08-05T07:00:24;11.80;;;7.53;;
21254;SDS011;10785;50.674;17.954;2022-08-05T07:02:55;10.48;;;6.90;;
21254;SDS011;10785;50.674;17.954;2022-08-05T07:05:24;13.38;;;6.93;;
21254;SDS011;10785;50.674;17.954;2022-08-05T07:08:03;9.65;;;7.00;;
21254;SDS011;10785;50.674;17.954;2022-08-05T07:10:37;14.38;;;7.53;;
21254;SDS011;10785;50.674;17.954;2022-08-05T07:13:21;11.88;;;9.80;;
21254;SDS011;10785;50.674;17.954;2022-08-05T07:16:26;11.45;;;6.95;;
21254;SDS011;10785;50.674;17.954;2022-08-05T07:19:32;12.90;;;7.10;;
21254;SDS011;10785;50.674;17.954;2022-08-05T07:22:21;8.50;;;6.97;;
21254;SDS011;10785;50.674;17.954;2022-08-05T07:24:56;12.40;;;7.55;;
21254;SDS011;10785;50.674;17.954;2022-08-05T07:27:45;11.25;;;7.30;;
21254;SDS011;10785;50.674;17.954;2022-08-05T07:30:30;8.80;;;7.32;;
21254;SDS011;10785;50.674;17.954;2022-08-05T07:33:04;16.65;;;8.82;;
21254;SDS011;10785;50.674;17.954;2022-08-05T07:35:36;9.35;;;7.10;;
21254;SDS011;10785;50.674;17.954;2022-08-05T07:38:25;14.80;;;8.88;;
21254;SDS011;10785;50.674;17.954;2022-08-05T07:41:01;18.90;;;8.20;;
21254;SDS011;10785;50.674;17.954;2022-08-05T07:43:51;14.00;;;8.50;;
21254;SDS011;10785;50.674;17.954;2022-08-05T07:46:23;17.02;;;8.48;;
21254;SDS011;10785;50.674;17.954;2022-08-05T07:48:53;19.20;;;8.85;;
21254;SDS011;10785;50.674;17.954;2022-08-05T07:51:31;13.13;;;8.50;;
21254;SDS011;10785;50.674;17.954;2022-08-05T07:54:03;15.18;;;8.60;;
21254;SDS011;10785;50.674;17.954;2022-08-05T07:56:35;11.65;;;8.20;;
21254;SDS011;10785;50.674;17.954;2022-08-05T07:59:14;12.43;;;8.45;;
21254;SDS011;10785;50.674;17.954;2022-08-05T08:01:50;16.80;;;9.30;;
21254;SDS011;10785;50.674;17.954;2022-08-05T08:04:23;14.70;;;9.38;;
21254;SDS011;10785;50.674;17.954;2022-08-05T08:07:04;15.73;;;8.70;;
21254;SDS011;10785;50.674;17.954;2022-08-05T08:09:33;11.32;;;9.40;;
21254;SDS011;10785;50.674;17.954;2022-08-05T08:12:03;18.17;;;8.55;;
21254;SDS011;10785;50.674;17.954;2022-08-05T08:14:52;11.43;;;8.20;;
21254;SDS011;10785;50.674;17.954;2022-08-05T08:17:22;14.23;;;8.90;;
21254;SDS011;10785;50.674;17.954;2022-08-05T08:19:53;11.10;;;8.35;;
21254;SDS011;10785;50.674;17.954;2022-08-05T08:22:42;15.38;;;8.65;;
21254;SDS011;10785;50.674;17.954;2022-08-05T08:25:10;12.40;;;8.38;;
21254;SDS011;10785;50.674;17.954;2022-08-05T08:27:43;17.63;;;8.82;;
21254;SDS011;10785;50.674;17.954;2022-08-05T08:30:17;14.80;;;9.30;;
21254;SDS011;10785;50.674;17.954;2022-08-05T08:33:07;13.95;;;8.88;;
21254;SDS011;10785;50.674;17.954;2022-08-05T08:35:39;14.50;;;8.70;;
21254;SDS011;10785;50.674;17.954;2022-08-05T08:38:23;14.05;;;8.65;;
21254;SDS011;10785;50.674;17.954;2022-08-05T08:41:03;17.67;;;8.90;;
21254;SDS011;10785;50.674;17.954;2022-08-05T08:43:34;14.25;;;8.70;;
21254;SDS011;10785;50.674;17.954;2022-08-05T08:46:25;13.68;;;8.10;;
21254;SDS011;10785;50.674;17.954;2022-08-05T08:48:58;14.13;;;9.25;;
21254;SDS011;10785;50.674;17.954;2022-08-05T08:51:48;17.38;;;9.77;;
21254;SDS011;10785;50.674;17.954;2022-08-05T08:54:32;20.30;;;8.95;;
21254;SDS011;10785;50.674;17.954;2022-08-05T08:57:03;17.05;;;8.65;;
21254;SDS011;10785;50.674;17.954;2022-08-05T08:59:38;16.02;;;9.02;;
21254;SDS011;10785;50.674;17.954;2022-08-05T09:02:13;14.18;;;9.00;;
21254;SDS011;10785;50.674;17.954;2022-08-05T09:04:45;12.38;;;8.50;;
21254;SDS011;10785;50.674;17.954;2022-08-05T09:07:34;10.88;;;8.75;;
21254;SDS011;10785;50.674;17.954;2022-08-05T09:10:22;16.40;;;9.05;;
21254;SDS011;10785;50.674;17.954;2022-08-05T09:12:55;17.42;;;8.60;;
21254;SDS011;10785;50.674;17.954;2022-08-05T09:15:31;14.70;;;9.30;;
21254;SDS011;10785;50.674;17.954;2022-08-05T09:18:04;13.13;;;8.57;;
21254;SDS011;10785;50.674;17.954;2022-08-05T09:20:35;21.75;;;9.18;;
21254;SDS011;10785;50.674;17.954;2022-08-05T09:23:05;17.52;;;8.30;;
21254;SDS011;10785;50.674;17.954;2022-08-05T09:25:46;16.02;;;8.30;;
21254;SDS011;10785;50.674;17.954;2022-08-05T09:28:30;12.82;;;7.85;;
21254;SDS011;10785;50.674;17.954;2022-08-05T09:31:02;10.13;;;7.95;;
21254;SDS011;10785;50.674;17.954;2022-08-05T09:33:54;19.38;;;8.43;;
21254;SDS011;10785;50.674;17.954;2022-08-05T09:36:38;11.85;;;8.05;;
21254;SDS011;10785;50.674;17.954;2022-08-05T09:39:21;11.45;;;7.35;;
21254;SDS011;10785;50.674;17.954;2022-08-05T09:42:10;11.20;;;6.88;;
21254;SDS011;10785;50.674;17.954;2022-08-05T09:44:51;10.52;;;6.63;;
21254;SDS011;10785;50.674;17.954;2022-08-05T09:47:23;10.80;;;7.10;;
21254;SDS011;10785;50.674;17.954;2022-08-05T09:50:13;10.73;;;6.68;;
21254;SDS011;10785;50.674;17.954;2022-08-05T09:53:08;6.55;;;5.97;;
21254;SDS011;10785;50.674;17.954;2022-08-05T09:55:59;8.38;;;5.80;;
21254;SDS011;10785;50.674;17.954;2022-08-05T09:58:39;13.18;;;7.28;;
21254;SDS011;10785;50.674;17.954;2022-08-05T10:01:10;9.63;;;5.88;;
21254;SDS011;10785;50.674;17.954;2022-08-05T10:03:58;9.38;;;6.70;;
21254;SDS011;10785;50.674;17.954;2022-08-05T10:06:36;8.18;;;5.30;;
21254;SDS011;10785;50.674;17.954;2022-08-05T10:09:26;8.32;;;5.90;;
21254;SDS011;10785;50.674;17.954;2022-08-05T10:12:10;6.53;;;5.30;;
21254;SDS011;10785;50.674;17.954;2022-08-05T10:15:13;6.30;;;5.30;;
21254;SDS011;10785;50.674;17.954;2022-08-05T10:18:00;7.95;;;5.35;;
21254;SDS011;10785;50.674;17.954;2022-08-05T10:20:33;9.60;;;5.35;;
21254;SDS011;10785;50.674;17.954;2022-08-05T10:23:04;6.18;;;4.50;;
21254;SDS011;10785;50.674;17.954;2022-08-05T10:25:54;9.07;;;5.05;;
21254;SDS011;10785;50.674;17.954;2022-08-05T10:28:25;5.55;;;4.63;;
21254;SDS011;10785;50.674;17.954;2022-08-05T10:30:56;7.10;;;4.57;;
21254;SDS011;10785;50.674;17.954;2022-08-05T10:33:46;7.35;;;4.38;;
21254;SDS011;10785;50.674;17.954;2022-08-05T10:36:19;7.55;;;5.68;;
21254;SDS011;10785;50.674;17.954;2022-08-05T10:38:54;6.53;;;4.40;;
21254;SDS011;10785;50.674;17.954;2022-08-05T10:41:42;4.45;;;3.70;;
21254;SDS011;10785;50.674;17.954;2022-08-05T10:44:16;5.38;;;3.90;;
21254;SDS011;10785;50.674;17.954;2022-08-05T10:46:47;6.82;;;4.70;;
21254;SDS011;10785;50.674;17.954;2022-08-05T10:49:20;4.55;;;4.15;;
21254;SDS011;10785;50.674;17.954;2022-08-05T10:51:53;5.93;;;3.88;;
21254;SDS011;10785;50.674;17.954;2022-08-05T10:57:27;5.70;;;4.20;;
21254;SDS011;10785;50.674;17.954;2022-08-05T11:00:07;5.18;;;3.90;;
21254;SDS011;10785;50.674;17.954;2022-08-05T11:06:01;9.23;;;3.95;;
21254;SDS011;10785;50.674;17.954;2022-08-05T11:08:31;5.57;;;4.13;;
21254;SDS011;10785;50.674;17.954;2022-08-05T11:14:12;9.40;;;4.40;;
21254;SDS011;10785;50.674;17.954;2022-08-05T11:17:27;6.55;;;5.00;;
21254;SDS011;10785;50.674;17.954;2022-08-05T11:20:32;6.20;;;4.57;;
21254;SDS011;10785;50.674;17.954;2022-08-05T11:26:30;5.63;;;4.68;;
21254;SDS011;10785;50.674;17.954;2022-08-05T11:28:59;6.88;;;4.63;;
21254;SDS011;10785;50.674;17.954;2022-08-05T11:31:41;8.02;;;4.40;;
21254;SDS011;10785;50.674;17.954;2022-08-05T11:34:36;7.28;;;4.25;;
21254;SDS011;10785;50.674;17.954;2022-08-05T11:40:56;4.85;;;4.30;;
21254;SDS011;10785;50.674;17.954;2022-08-05T11:43:52;7.43;;;4.18;;
21254;SDS011;10785;50.674;17.954;2022-08-05T11:46:34;8.02;;;4.97;;
21254;SDS011;10785;50.674;17.954;2022-08-05T11:49:29;7.30;;;4.25;;
21254;SDS011;10785;50.674;17.954;2022-08-05T11:51:59;4.57;;;4.13;;
21254;SDS011;10785;50.674;17.954;2022-08-05T11:54:36;6.07;;;3.80;;
21254;SDS011;10785;50.674;17.954;2022-08-05T11:57:09;4.38;;;3.75;;
21254;SDS011;10785;50.674;17.954;2022-08-05T11:59:57;8.27;;;3.88;;
21254;SDS011;10785;50.674;17.954;2022-08-05T12:02:27;4.85;;;3.78;;
21254;SDS011;10785;50.674;17.954;2022-08-05T12:05:01;5.00;;;3.47;;
21254;SDS011;10785;50.674;17.954;2022-08-05T12:07:34;5.05;;;3.75;;
21254;SDS011;10785;50.674;17.954;2022-08-05T12:10:24;5.63;;;4.10;;
21254;SDS011;10785;50.674;17.954;2022-08-05T12:13:11;4.30;;;3.40;;
21254;SDS011;10785;50.674;17.954;2022-08-05T12:15:54;6.00;;;3.83;;
21254;SDS011;10785;50.674;17.954;2022-08-05T12:18:27;4.40;;;3.92;;
21254;SDS011;10785;50.674;17.954;2022-08-05T12:21:15;4.30;;;3.92;;
21254;SDS011;10785;50.674;17.954;2022-08-05T12:23:53;5.47;;;3.85;;
21254;SDS011;10785;50.674;17.954;2022-08-05T12:26:30;6.28;;;3.50;;
21254;SDS011;10785;50.674;17.954;2022-08-05T12:28:59;3.78;;;3.42;;
21254;SDS011;10785;50.674;17.954;2022-08-05T12:31:30;4.05;;;3.65;;
21254;SDS011;10785;50.674;17.954;2022-08-05T12:34:15;9.00;;;4.00;;
21254;SDS011;10785;50.674;17.954;2022-08-05T12:36:50;9.52;;;3.83;;
21254;SDS011;10785;50.674;17.954;2022-08-05T12:39:22;3.78;;;3.47;;
21254;SDS011;10785;50.674;17.954;2022-08-05T12:42:03;6.53;;;3.47;;
21254;SDS011;10785;50.674;17.954;2022-08-05T12:44:41;6.75;;;4.38;;
21254;SDS011;10785;50.674;17.954;2022-08-05T12:47:13;6.03;;;3.72;;
21254;SDS011;10785;50.674;17.954;2022-08-05T12:49:56;5.15;;;3.20;;
21254;SDS011;10785;50.674;17.954;2022-08-05T12:52:33;5.90;;;3.50;;
21254;SDS011;10785;50.674;17.954;2022-08-05T12:55:17;3.70;;;3.40;;
21254;SDS011;10785;50.674;17.954;2022-08-05T12:57:49;5.38;;;3.53;;
21254;SDS011;10785;50.674;17.954;2022-08-05T13:00:42;4.00;;;3.60;;
21254;SDS011;10785;50.674;17.954;2022-08-05T13:03:33;3.75;;;3.25;;
21254;SDS011;10785;50.674;17.954;2022-08-05T13:06:13;4.03;;;3.63;;
21254;SDS011;10785;50.674;17.954;2022-08-05T13:08:45;3.88;;;3.50;;
21254;SDS011;10785;50.674;17.954;2022-08-05T13:11:21;5.68;;;3.58;;
21254;SDS011;10785;50.674;17.954;2022-08-05T13:14:18;6.75;;;3.80;;
21254;SDS011;10785;50.674;17.954;2022-08-05T13:17:01;8.77;;;3.53;;
21254;SDS011;10785;50.674;17.954;2022-08-05T13:19:35;4.28;;;3.42;;
21254;SDS011;10785;50.674;17.954;2022-08-05T13:22:19;4.30;;;3.75;;
21254;SDS011;10785;50.674;17.954;2022-08-05T13:24:57;3.80;;;3.50;;
21254;SDS011;10785;50.674;17.954;2022-08-05T13:27:32;7.00;;;3.50;;
21254;SDS011;10785;50.674;17.954;2022-08-05T13:30:05;5.47;;;3.33;;
21254;SDS011;10785;50.674;17.954;2022-08-05T13:32:55;6.22;;;3.58;;
21254;SDS011;10785;50.674;17.954;2022-08-05T13:35:27;4.22;;;3.22;;
21254;SDS011;10785;50.674;17.954;2022-08-05T13:38:17;5.22;;;3.40;;
21254;SDS011;10785;50.674;17.954;2022-08-05T13:40:58;5.75;;;3.60;;
21254;SDS011;10785;50.674;17.954;2022-08-05T13:43:28;9.98;;;3.58;;
21254;SDS011;10785;50.674;17.954;2022-08-05T13:46:16;5.45;;;3.80;;
21254;SDS011;10785;50.674;17.954;2022-08-05T13:49:05;7.38;;;3.67;;
21254;SDS011;10785;50.674;17.954;2022-08-05T13:51:36;8.60;;;4.28;;
21254;SDS011;10785;50.674;17.954;2022-08-05T13:54:12;5.53;;;3.85;;
21254;SDS011;10785;50.674;17.954;2022-08-05T13:56:53;9.38;;;3.78;;
21254;SDS011;10785;50.674;17.954;2022-08-05T13:59:22;5.43;;;3.38;;
21254;SDS011;10785;50.674;17.954;2022-08-05T14:01:53;7.88;;;3.85;;
21254;SDS011;10785;50.674;17.954;2022-08-05T14:04:26;6.43;;;3.20;;
21254;SDS011;10785;50.674;17.954;2022-08-05T14:07:17;6.18;;;3.55;;
21254;SDS011;10785;50.674;17.954;2022-08-05T14:10:07;5.25;;;3.53;;
21254;SDS011;10785;50.674;17.954;2022-08-05T14:12:40;4.93;;;3.20;;
21254;SDS011;10785;50.674;17.954;2022-08-05T14:15:14;6.28;;;3.20;;
21254;SDS011;10785;50.674;17.954;2022-08-05T14:18:03;10.73;;;3.40;;
21254;SDS011;10785;50.674;17.954;2022-08-05T14:20:44;4.97;;;3.38;;
21254;SDS011;10785;50.674;17.954;2022-08-05T14:23:14;8.50;;;3.40;;
21254;SDS011;10785;50.674;17.954;2022-08-05T14:25:50;3.90;;;3.60;;
21254;SDS011;10785;50.674;17.954;2022-08-05T14:28:21;4.65;;;3.40;;
21254;SDS011;10785;50.674;17.954;2022-08-05T14:30:53;5.68;;;3.38;;
21254;SDS011;10785;50.674;17.954;2022-08-05T14:33:21;4.43;;;3.60;;
21254;SDS011;10785;50.674;17.954;2022-08-05T14:35:50;6.97;;;3.35;;
21254;SDS011;10785;50.674;17.954;2022-08-05T14:38:20;6.22;;;3.13;;
21254;SDS011;10785;50.674;17.954;2022-08-05T14:40:58;4.47;;;3.00;;
21254;SDS011;10785;50.674;17.954;2022-08-05T14:43:33;4.43;;;3.53;;
21254;SDS011;10785;50.674;17.954;2022-08-05T14:46:22;6.20;;;3.42;;
21254;SDS011;10785;50.674;17.954;2022-08-05T14:48:55;7.93;;;3.78;;
21254;SDS011;10785;50.674;17.954;2022-08-05T14:51:33;4.43;;;3.00;;
21254;SDS011;10785;50.674;17.954;2022-08-05T14:54:04;4.13;;;3.30;;
21254;SDS011;10785;50.674;17.954;2022-08-05T14:56:53;6.50;;;3.50;;
21254;SDS011;10785;50.674;17.954;2022-08-05T14:59:23;5.60;;;3.42;;
21254;SDS011;10785;50.674;17.954;2022-08-05T15:01:55;6.25;;;3.72;;
21254;SDS011;10785;50.674;17.954;2022-08-05T15:04:25;3.97;;;3.30;;
21254;SDS011;10785;50.674;17.954;2022-08-05T15:06:54;4.82;;;3.60;;
21254;SDS011;10785;50.674;17.954;2022-08-05T15:09:24;8.32;;;3.47;;
21254;SDS011;10785;50.674;17.954;2022-08-05T15:12:13;4.03;;;3.30;;
21254;SDS011;10785;50.674;17.954;2022-08-05T15:14:44;8.30;;;3.40;;
21254;SDS011;10785;50.674;17.954;2022-08-05T15:17:16;6.82;;;3.55;;
21254;SDS011;10785;50.674;17.954;2022-08-05T15:20:06;4.85;;;3.70;;
21254;SDS011;10785;50.674;17.954;2022-08-05T15:22:44;5.53;;;3.30;;
21254;SDS011;10785;50.674;17.954;2022-08-05T15:25:21;7.18;;;3.72;;
21254;SDS011;10785;50.674;17.954;2022-08-05T15:28:10;6.35;;;3.65;;
21254;SDS011;10785;50.674;17.954;2022-08-05T15:30:42;5.10;;;3.70;;
21254;SDS011;10785;50.674;17.954;2022-08-05T15:33:12;6.40;;;3.70;;
21254;SDS011;10785;50.674;17.954;2022-08-05T15:36:01;4.30;;;3.03;;
21254;SDS011;10785;50.674;17.954;2022-08-05T15:38:42;9.20;;;3.35;;
21254;SDS011;10785;50.674;17.954;2022-08-05T15:41:12;5.65;;;3.30;;
21254;SDS011;10785;50.674;17.954;2022-08-05T15:43:50;5.82;;;3.60;;
21254;SDS011;10785;50.674;17.954;2022-08-05T15:46:22;6.03;;;3.60;;